Stations météo

réclame
Mon MeteoGroup
Cairnwell, Grande-Bretagne (3072): Température de l'air & dewpoint: 11.11.2017 17:00:00 - 17.11.2017 17:00:00 (GMT)Cairnwell, Grande-Bretagne (3072): Vitesse du vent & gusts: 11.11.2017 17:00:00 - 17.11.2017 17:00:00 (GMT)Cairnwell, Grande-Bretagne (3072): Direction du vent: 11.11.2017 17:00:00 - 17.11.2017 17:00:00 (GMT)
Date & Time tt [°C] td [°C] ff [km/h] ff [knt] fx [km/h] fx [knt] dd
17.11.2017 17:00:00 - - - - - - -
17.11.2017 16:00:00 0,7 -0,6 63 34 107 58 W
17.11.2017 15:00:00 0,9 -0,8 67 36 94 51 W
17.11.2017 14:00:00 1,2 -0,7 55 30 96 52 W
17.11.2017 13:00:00 0,5 -0,2 61 33 89 48 W
17.11.2017 12:00:00 0,7 -0,1 46 25 74 40 W
17.11.2017 11:00:00 0,1 -0,1 37 20 72 39 WSW
17.11.2017 10:00:00 -0,2 -0,3 31 17 85 46 WSW
17.11.2017 09:00:00 0,0 -0,5 55 30 80 43 W
17.11.2017 08:00:00 0,0 -0,3 48 26 78 42 W
17.11.2017 07:00:00 -0,6 -0,7 37 20 68 37 WSW
17.11.2017 06:00:00 -0,8 -0,9 35 19 74 40 WSW
17.11.2017 05:00:00 -0,9 -0,9 48 26 78 42 WSW
17.11.2017 04:00:00 -1,2 -1,4 42 23 81 44 WSW
17.11.2017 03:00:00 -1,3 -1,6 44 24 89 48 W
17.11.2017 02:00:00 -1,4 -1,4 52 28 85 46 W
17.11.2017 01:00:00 -2,1 -2,3 37 20 70 38 WSW
17.11.2017 00:00:00 -1,2 -2,6 44 24 61 33 W
16.11.2017 23:00:00 -1,3 -2,5 37 20 52 28 W
16.11.2017 22:00:00 -1,7 -2,6 44 24 57 31 W
16.11.2017 21:00:00 -1,7 -2,5 28 15 68 37 W
16.11.2017 20:00:00 -1,5 -2,5 35 19 76 41 W
16.11.2017 19:00:00 -1,4 -2,6 65 35 83 45 WNW
16.11.2017 18:00:00 -1,3 -2,9 63 34 93 50 W
16.11.2017 17:00:00 -1,5 -2,7 65 35 93 50 W
16.11.2017 16:00:00 -1,4 -3,0 57 31 76 41 W
16.11.2017 15:00:00 -1,6 -2,4 59 32 87 47 W
16.11.2017 14:00:00 -1,0 -2,9 61 33 85 46 WNW
16.11.2017 13:00:00 -1,2 -3,0 67 36 94 51 WNW
16.11.2017 12:00:00 -2,2 -2,2 55 30 80 43 WNW
16.11.2017 11:00:00 -1,5 -2,1 35 19 93 50 W
16.11.2017 10:00:00 -1,1 -1,6 34 18 93 50 W
16.11.2017 09:00:00 -0,9 -1,3 72 39 115 62 W
16.11.2017 08:00:00 -0,2 -0,4 63 34 93 50 W
16.11.2017 07:00:00 1,1 1,1 59 32 81 44 W
16.11.2017 06:00:00 1,4 1,4 57 31 106 57 WSW
16.11.2017 05:00:00 4,2 4,2 65 35 94 51 SW
16.11.2017 04:00:00 4,1 4,0 65 35 93 50 SSW
16.11.2017 03:00:00 3,9 3,9 70 38 91 49 SW
16.11.2017 02:00:00 3,7 3,6 61 33 81 44 SSW
16.11.2017 01:00:00 3,2 3,2 59 32 74 40 S
16.11.2017 00:00:00 2,6 2,6 70 38 81 44 SSW
15.11.2017 23:00:00 1,8 1,8 61 33 74 40 S
15.11.2017 22:00:00 1,5 1,5 61 33 72 39 S
15.11.2017 21:00:00 1,5 1,5 59 32 74 40 S
15.11.2017 20:00:00 1,5 1,5 61 33 68 37 S
15.11.2017 19:00:00 1,1 1,1 59 32 74 40 SSW
15.11.2017 18:00:00 1,1 1,0 54 29 72 39 SSW
15.11.2017 17:00:00 1,1 1,1 52 28 68 37 SSW
15.11.2017 16:00:00 1,1 1,0 52 28 63 34 SSW
15.11.2017 15:00:00 0,9 0,8 44 24 52 28 SSW
15.11.2017 14:00:00 0,6 0,6 37 20 - - SSW
15.11.2017 13:00:00 0,4 0,0 24 13 - - S
15.11.2017 12:00:00 0,3 -0,7 16 9 - - SSW
15.11.2017 11:00:00 0,8 -2,4 16 9 - - SW
15.11.2017 10:00:00 0,1 -1,0 13 7 - - WSW
15.11.2017 09:00:00 0,4 -0,6 28 15 - - WSW
15.11.2017 08:00:00 0,4 -0,7 13 7 - - WNW
15.11.2017 07:00:00 0,5 -0,5 26 14 50 27 WNW
15.11.2017 06:00:00 0,1 -0,4 34 18 - - WNW
15.11.2017 05:00:00 0,7 0,2 28 15 - - WNW
15.11.2017 04:00:00 0,5 0,5 24 13 54 29 WNW
15.11.2017 03:00:00 0,5 0,4 42 23 57 31 WNW
15.11.2017 02:00:00 1,3 0,9 21 11 63 34 W
15.11.2017 01:00:00 1,3 1,1 41 22 59 32 W
15.11.2017 00:00:00 1,0 0,7 31 17 - - W
14.11.2017 23:00:00 1,1 0,6 22 12 - - W
14.11.2017 22:00:00 0,8 0,4 11 6 - - W
14.11.2017 21:00:00 1,1 0,4 26 14 - - W
14.11.2017 20:00:00 1,0 0,8 29 16 46 25 W
14.11.2017 19:00:00 1,3 0,7 29 16 - - W
14.11.2017 18:00:00 1,6 0,9 21 11 46 25 WSW
14.11.2017 17:00:00 1,8 0,9 26 14 50 27 W
14.11.2017 16:00:00 1,8 0,4 42 23 68 37 W
14.11.2017 15:00:00 2,1 0,6 34 18 55 30 WNW
14.11.2017 14:00:00 1,7 1,0 16 9 - - SSW
14.11.2017 13:00:00 2,0 1,4 31 17 - - W
14.11.2017 12:00:00 1,8 1,3 15 8 - - SW
14.11.2017 11:00:00 1,7 1,2 15 8 50 27 W
14.11.2017 10:00:00 1,4 1,4 37 20 46 25 WNW
14.11.2017 09:00:00 1,2 1,2 18 10 52 28 NW
14.11.2017 08:00:00 1,9 1,8 16 9 - - W
14.11.2017 07:00:00 1,8 1,8 28 15 50 27 WNW
14.11.2017 06:00:00 1,8 1,8 16 9 54 29 W
14.11.2017 05:00:00 1,8 1,8 15 8 - - WNW
14.11.2017 04:00:00 2,0 2,0 34 18 68 37 NW
14.11.2017 03:00:00 2,5 2,4 67 36 80 43 WNW
14.11.2017 02:00:00 2,5 2,5 59 32 72 39 WNW
14.11.2017 01:00:00 2,8 2,7 52 28 67 36 NW
14.11.2017 00:00:00 5,0 5,0 42 23 76 41 W
13.11.2017 23:00:00 5,3 5,2 55 30 89 48 W
13.11.2017 22:00:00 4,0 4,0 67 36 89 48 WSW
13.11.2017 21:00:00 2,7 2,6 63 34 72 39 WSW
13.11.2017 20:00:00 0,3 0,3 44 24 61 33 SW
13.11.2017 19:00:00 -0,4 -0,5 42 23 54 29 SW
13.11.2017 18:00:00 -1,4 -1,5 37 20 - - SSW
13.11.2017 17:00:00 -1,7 -2,0 35 19 48 26 SSW
13.11.2017 16:00:00 -2,2 -2,3 44 24 54 29 SSW
13.11.2017 15:00:00 -2,7 -2,8 44 24 50 27 SSW
13.11.2017 14:00:00 -3,3 -3,5 41 22 50 27 SSW
13.11.2017 13:00:00 -3,4 -3,8 39 21 48 26 SSW
13.11.2017 12:00:00 -3,7 -4,5 37 20 48 26 SW
13.11.2017 11:00:00 -3,2 -5,5 35 19 55 30 WSW
13.11.2017 10:00:00 -3,9 -4,3 21 11 - - SSW
13.11.2017 09:00:00 -3,9 -4,2 26 14 - - W
13.11.2017 08:00:00 -3,3 -4,0 4 2 52 28 NE
13.11.2017 07:00:00 -3,4 -4,1 37 20 - - NW
13.11.2017 06:00:00 -3,6 -4,0 28 15 46 25 NW
13.11.2017 05:00:00 -3,9 -4,3 37 20 - - NW
13.11.2017 04:00:00 -4,3 -4,7 29 16 - - NNW
13.11.2017 03:00:00 -4,2 -4,6 29 16 57 31 NNW
13.11.2017 02:00:00 -3,8 -4,2 48 26 59 32 NNW
13.11.2017 01:00:00 -3,5 -3,8 28 15 65 35 NNW
13.11.2017 00:00:00 -3,2 -3,4 57 31 80 43 NNW
12.11.2017 23:00:00 -3,3 -3,6 63 34 78 42 NNW
12.11.2017 22:00:00 -3,1 -3,4 59 32 78 42 NNW
12.11.2017 21:00:00 -3,1 -3,3 50 27 80 43 NNW
12.11.2017 20:00:00 -2,8 -2,9 65 35 85 46 NNW
12.11.2017 19:00:00 -2,6 -2,7 67 36 - - NNW
12.11.2017 18:00:00 -2,6 -2,7 70 38 113 61 NNW
12.11.2017 17:00:00 -2,6 -3,2 81 44 111 60 NNW
12.11.2017 16:00:00 -2,8 -3,2 78 42 109 59 NNW
12.11.2017 15:00:00 -2,5 -2,9 39 21 89 48 N
12.11.2017 14:00:00 -2,4 -3,8 74 40 104 56 NNW
12.11.2017 13:00:00 -2,4 -4,4 50 27 130 70 NNW
12.11.2017 12:00:00 -2,2 -4,8 100 54 135 73 NNW
12.11.2017 11:00:00 -2,6 -3,7 83 45 128 69 N
12.11.2017 10:00:00 -2,9 -3,2 93 50 130 70 N
12.11.2017 09:00:00 -3,0 -3,2 81 44 107 58 N
12.11.2017 08:00:00 -3,0 -3,1 72 39 96 52 NNW
12.11.2017 07:00:00 -3,0 -3,1 59 32 76 41 NNW
12.11.2017 06:00:00 -3,0 -3,2 59 32 78 42 NW
12.11.2017 05:00:00 -3,2 -3,5 65 35 80 43 NW
12.11.2017 04:00:00 -3,1 -3,3 59 32 80 43 NW
12.11.2017 03:00:00 -3,1 -3,3 52 28 70 38 NW
12.11.2017 02:00:00 -3,2 -3,5 52 28 67 36 NW
12.11.2017 01:00:00 -3,3 -3,5 59 32 74 40 WNW
12.11.2017 00:00:00 -3,1 -3,2 55 30 63 34 WNW
11.11.2017 23:00:00 -3,1 -3,2 48 26 63 34 WNW
11.11.2017 22:00:00 -3,0 -3,1 52 28 61 33 WNW
11.11.2017 21:00:00 -3,0 -3,1 46 25 59 32 WNW
11.11.2017 20:00:00 -3,0 -3,2 44 24 54 29 WNW
11.11.2017 19:00:00 -2,9 -3,3 39 21 55 30 NW
11.11.2017 18:00:00 -2,5 -3,4 48 26 68 37 WNW
11.11.2017 17:00:00 -2,5 -3,2 37 20 55 30 NW

tt = Température de l'air
td = dewpoint
ff = Vitesse du vent
fx = gusts
dd = Direction du vent

stations d'obs. à proximité